sensor_id;sensor_type;location;lat;lon;timestamp;pressure;altitude;pressure_sealevel;temperature;humidity
45467;BME280;31212;49.734;8.490;2023-07-08T00:01:58;100526.72;;;18.98;68.03
45467;BME280;31212;49.734;8.490;2023-07-08T00:04:24;100519.09;;;18.89;68.34
45467;BME280;31212;49.734;8.490;2023-07-08T00:06:52;100514.91;;;18.82;68.64
45467;BME280;31212;49.734;8.490;2023-07-08T00:09:18;100498.50;;;18.74;68.59
45467;BME280;31212;49.734;8.490;2023-07-08T00:11:45;100494.41;;;18.63;68.44
45467;BME280;31212;49.734;8.490;2023-07-08T00:14:13;100498.91;;;18.58;68.70
45467;BME280;31212;49.734;8.490;2023-07-08T00:16:39;100498.28;;;18.50;69.09
45467;BME280;31212;49.734;8.490;2023-07-08T00:19:08;100493.13;;;18.47;68.94
45467;BME280;31212;49.734;8.490;2023-07-08T00:21:35;100478.25;;;18.46;68.91
45467;BME280;31212;49.734;8.490;2023-07-08T00:24:02;100479.16;;;18.45;69.18
45467;BME280;31212;49.734;8.490;2023-07-08T00:26:30;100462.41;;;18.49;68.59
45467;BME280;31212;49.734;8.490;2023-07-08T00:28:59;100470.31;;;18.47;68.45
45467;BME280;31212;49.734;8.490;2023-07-08T00:31:27;100458.09;;;18.46;68.58
45467;BME280;31212;49.734;8.490;2023-07-08T00:33:57;100445.13;;;18.40;67.99
45467;BME280;31212;49.734;8.490;2023-07-08T00:36:25;100462.47;;;18.46;68.77
45467;BME280;31212;49.734;8.490;2023-07-08T00:38:52;100445.03;;;18.43;68.38
45467;BME280;31212;49.734;8.490;2023-07-08T00:41:21;100402.97;;;18.43;67.16
45467;BME280;31212;49.734;8.490;2023-07-08T00:43:51;100366.94;;;18.47;65.38
45467;BME280;31212;49.734;8.490;2023-07-08T00:46:33;100353.75;;;18.48;64.66
45467;BME280;31212;49.734;8.490;2023-07-08T00:49:13;100385.88;;;18.58;65.22
45467;BME280;31212;49.734;8.490;2023-07-08T00:51:41;100403.78;;;18.45;66.09
45467;BME280;31212;49.734;8.490;2023-07-08T00:54:10;100411.13;;;18.34;66.25
45467;BME280;31212;49.734;8.490;2023-07-08T00:56:40;100401.44;;;18.36;66.00
45467;BME280;31212;49.734;8.490;2023-07-08T00:59:11;100392.69;;;18.36;65.37
45467;BME280;31212;49.734;8.490;2023-07-08T01:01:42;100414.47;;;18.39;65.78
45467;BME280;31212;49.734;8.490;2023-07-08T01:04:12;100438.59;;;18.24;66.95
45467;BME280;31212;49.734;8.490;2023-07-08T01:06:44;100416.41;;;18.32;65.75
45467;BME280;31212;49.734;8.490;2023-07-08T01:09:14;100419.03;;;18.32;65.53
45467;BME280;31212;49.734;8.490;2023-07-08T01:11:42;100449.13;;;18.22;66.15
45467;BME280;31212;49.734;8.490;2023-07-08T01:14:12;100458.72;;;18.25;66.42
45467;BME280;31212;49.734;8.490;2023-07-08T01:16:44;100451.66;;;18.25;66.60
45467;BME280;31212;49.734;8.490;2023-07-08T01:19:14;100442.53;;;18.07;66.55
45467;BME280;31212;49.734;8.490;2023-07-08T01:21:46;100444.38;;;18.04;66.36
45467;BME280;31212;49.734;8.490;2023-07-08T01:24:13;100434.06;;;17.96;66.23
45467;BME280;31212;49.734;8.490;2023-07-08T01:26:43;100429.75;;;17.93;66.52
45467;BME280;31212;49.734;8.490;2023-07-08T01:29:11;100422.78;;;17.91;66.21
45467;BME280;31212;49.734;8.490;2023-07-08T01:31:39;100419.25;;;17.93;66.07
45467;BME280;31212;49.734;8.490;2023-07-08T01:34:08;100410.44;;;17.96;65.83
45467;BME280;31212;49.734;8.490;2023-07-08T01:36:39;100397.16;;;18.02;65.48
45467;BME280;31212;49.734;8.490;2023-07-08T01:39:11;100373.41;;;18.05;64.92
45467;BME280;31212;49.734;8.490;2023-07-08T01:41:40;100358.63;;;18.01;64.46
45467;BME280;31212;49.734;8.490;2023-07-08T01:44:20;100365.44;;;18.08;64.86
45467;BME280;31212;49.734;8.490;2023-07-08T01:46:47;100369.75;;;18.11;65.01
45467;BME280;31212;49.734;8.490;2023-07-08T01:49:14;100369.09;;;18.03;64.82
45467;BME280;31212;49.734;8.490;2023-07-08T01:51:41;100388.63;;;17.94;65.27
45467;BME280;31212;49.734;8.490;2023-07-08T01:54:10;100400.16;;;17.87;65.97
45467;BME280;31212;49.734;8.490;2023-07-08T01:56:37;100418.75;;;17.79;66.20
45467;BME280;31212;49.734;8.490;2023-07-08T01:59:04;100403.28;;;17.68;65.87
45467;BME280;31212;49.734;8.490;2023-07-08T02:01:31;100394.72;;;17.61;65.74
45467;BME280;31212;49.734;8.490;2023-07-08T02:03:57;100387.88;;;17.54;65.99
45467;BME280;31212;49.734;8.490;2023-07-08T02:06:24;100385.44;;;17.48;66.22
45467;BME280;31212;49.734;8.490;2023-07-08T02:08:51;100369.59;;;17.51;65.62
45467;BME280;31212;49.734;8.490;2023-07-08T02:11:19;100379.31;;;17.47;65.80
45467;BME280;31212;49.734;8.490;2023-07-08T02:13:45;100384.50;;;17.49;66.45
45467;BME280;31212;49.734;8.490;2023-07-08T02:16:12;100389.06;;;17.42;66.82
45467;BME280;31212;49.734;8.490;2023-07-08T02:18:38;100401.56;;;17.32;66.99
45467;BME280;31212;49.734;8.490;2023-07-08T02:21:05;100408.00;;;17.19;67.37
45467;BME280;31212;49.734;8.490;2023-07-08T02:23:32;100421.06;;;17.21;67.89
45467;BME280;31212;49.734;8.490;2023-07-08T02:25:58;100413.97;;;17.26;67.73
45467;BME280;31212;49.734;8.490;2023-07-08T02:28:26;100407.38;;;17.09;67.08
45467;BME280;31212;49.734;8.490;2023-07-08T02:30:53;100416.38;;;16.97;67.47
45467;BME280;31212;49.734;8.490;2023-07-08T02:33:19;100406.06;;;16.88;67.65
45467;BME280;31212;49.734;8.490;2023-07-08T02:35:52;100397.44;;;16.85;67.63
45467;BME280;31212;49.734;8.490;2023-07-08T02:38:19;100393.88;;;16.87;66.99
45467;BME280;31212;49.734;8.490;2023-07-08T02:40:46;100378.09;;;16.89;66.45
45467;BME280;31212;49.734;8.490;2023-07-08T02:43:12;100374.66;;;16.87;66.57
45467;BME280;31212;49.734;8.490;2023-07-08T02:45:40;100380.78;;;16.86;66.62
45467;BME280;31212;49.734;8.490;2023-07-08T02:48:07;100379.94;;;16.85;66.24
45467;BME280;31212;49.734;8.490;2023-07-08T02:50:33;100409.63;;;16.87;67.15
45467;BME280;31212;49.734;8.490;2023-07-08T02:53:00;100416.38;;;16.97;66.77
45467;BME280;31212;49.734;8.490;2023-07-08T02:55:26;100438.41;;;16.90;67.40
45467;BME280;31212;49.734;8.490;2023-07-08T02:57:53;100486.13;;;16.64;69.27
45467;BME280;31212;49.734;8.490;2023-07-08T03:00:19;100503.97;;;16.45;70.10
45467;BME280;31212;49.734;8.490;2023-07-08T03:02:47;100491.22;;;16.28;69.82
45467;BME280;31212;49.734;8.490;2023-07-08T03:05:14;100489.41;;;16.30;69.74
45467;BME280;31212;49.734;8.490;2023-07-08T03:07:41;100474.53;;;16.32;69.74
45467;BME280;31212;49.734;8.490;2023-07-08T03:10:08;100490.16;;;16.37;69.81
45467;BME280;31212;49.734;8.490;2023-07-08T03:12:35;100504.00;;;16.43;70.02
45467;BME280;31212;49.734;8.490;2023-07-08T03:15:02;100486.41;;;16.50;69.42
45467;BME280;31212;49.734;8.490;2023-07-08T03:17:29;100475.88;;;16.52;69.33
45467;BME280;31212;49.734;8.490;2023-07-08T03:19:57;100478.50;;;16.52;69.04
45467;BME280;31212;49.734;8.490;2023-07-08T03:22:23;100496.06;;;16.48;69.50
45467;BME280;31212;49.734;8.490;2023-07-08T03:24:50;100497.84;;;16.46;69.55
45467;BME280;31212;49.734;8.490;2023-07-08T03:27:19;100500.41;;;16.49;69.88
45467;BME280;31212;49.734;8.490;2023-07-08T03:29:48;100459.41;;;16.46;68.76
45467;BME280;31212;49.734;8.490;2023-07-08T03:32:15;100460.31;;;16.45;68.61
45467;BME280;31212;49.734;8.490;2023-07-08T03:34:42;100455.84;;;16.49;68.45
45467;BME280;31212;49.734;8.490;2023-07-08T03:37:10;100450.50;;;16.55;67.96
45467;BME280;31212;49.734;8.490;2023-07-08T03:39:36;100446.94;;;16.58;67.98
45467;BME280;31212;49.734;8.490;2023-07-08T03:42:04;100442.50;;;16.61;68.10
45467;BME280;31212;49.734;8.490;2023-07-08T03:44:30;100436.31;;;16.65;67.71
45467;BME280;31212;49.734;8.490;2023-07-08T03:46:58;100439.91;;;16.61;67.48
45467;BME280;31212;49.734;8.490;2023-07-08T03:49:25;100448.66;;;16.60;67.92
45467;BME280;31212;49.734;8.490;2023-07-08T03:51:54;100466.09;;;16.61;68.15
45467;BME280;31212;49.734;8.490;2023-07-08T03:54:23;100468.75;;;16.58;68.52
45467;BME280;31212;49.734;8.490;2023-07-08T03:56:51;100475.84;;;16.55;68.29
45467;BME280;31212;49.734;8.490;2023-07-08T03:59:20;100471.56;;;16.51;69.01
45467;BME280;31212;49.734;8.490;2023-07-08T04:01:46;100470.59;;;16.55;69.01
45467;BME280;31212;49.734;8.490;2023-07-08T04:04:15;100466.16;;;16.58;68.79
45467;BME280;31212;49.734;8.490;2023-07-08T04:06:43;100471.34;;;16.60;68.67
45467;BME280;31212;49.734;8.490;2023-07-08T04:09:12;100459.16;;;16.57;68.32
45467;BME280;31212;49.734;8.490;2023-07-08T04:11:39;100456.53;;;16.59;68.44
45467;BME280;31212;49.734;8.490;2023-07-08T04:14:08;100453.63;;;16.73;68.38
45467;BME280;31212;49.734;8.490;2023-07-08T04:16:43;100446.56;;;16.75;68.07
45467;BME280;31212;49.734;8.490;2023-07-08T04:19:12;100438.56;;;16.81;68.04
45467;BME280;31212;49.734;8.490;2023-07-08T04:21:40;100412.16;;;16.92;67.02
45467;BME280;31212;49.734;8.490;2023-07-08T04:24:08;100384.16;;;16.92;65.94
45467;BME280;31212;49.734;8.490;2023-07-08T04:26:35;100386.56;;;17.02;66.13
45467;BME280;31212;49.734;8.490;2023-07-08T04:29:03;100375.91;;;17.09;65.75
45467;BME280;31212;49.734;8.490;2023-07-08T04:31:30;100366.69;;;17.27;65.13
45467;BME280;31212;49.734;8.490;2023-07-08T04:33:56;100352.63;;;17.30;64.64
45467;BME280;31212;49.734;8.490;2023-07-08T04:36:23;100354.97;;;17.41;64.41
45467;BME280;31212;49.734;8.490;2023-07-08T04:38:50;100341.72;;;17.47;64.41
45467;BME280;31212;49.734;8.490;2023-07-08T04:41:16;100350.97;;;17.60;63.77
45467;BME280;31212;49.734;8.490;2023-07-08T04:43:43;100348.81;;;17.76;63.79
45467;BME280;31212;49.734;8.490;2023-07-08T04:46:18;100343.22;;;17.89;63.59
45467;BME280;31212;49.734;8.490;2023-07-08T04:48:45;100323.59;;;18.02;62.58
45467;BME280;31212;49.734;8.490;2023-07-08T04:51:13;100290.75;;;18.17;61.80
45467;BME280;31212;49.734;8.490;2023-07-08T04:53:40;100285.16;;;18.28;60.92
45467;BME280;31212;49.734;8.490;2023-07-08T04:56:07;100283.31;;;18.31;61.02
45467;BME280;31212;49.734;8.490;2023-07-08T04:58:34;100310.22;;;18.40;61.25
45467;BME280;31212;49.734;8.490;2023-07-08T05:01:00;100350.22;;;18.49;62.67
45467;BME280;31212;49.734;8.490;2023-07-08T05:03:28;100383.50;;;18.51;63.47
45467;BME280;31212;49.734;8.490;2023-07-08T05:05:55;100399.09;;;18.55;64.03
45467;BME280;31212;49.734;8.490;2023-07-08T05:08:21;100401.94;;;18.49;64.14
45467;BME280;31212;49.734;8.490;2023-07-08T05:10:48;100420.09;;;18.57;64.64
45467;BME280;31212;49.734;8.490;2023-07-08T05:13:14;100452.44;;;18.60;65.52
45467;BME280;31212;49.734;8.490;2023-07-08T05:15:41;100452.16;;;18.70;65.28
45467;BME280;31212;49.734;8.490;2023-07-08T05:18:07;100471.03;;;18.82;65.55
45467;BME280;31212;49.734;8.490;2023-07-08T05:20:35;100472.16;;;19.05;65.03
45467;BME280;31212;49.734;8.490;2023-07-08T05:23:02;100414.31;;;19.30;63.13
45467;BME280;31212;49.734;8.490;2023-07-08T05:25:31;100398.84;;;19.73;62.32
45467;BME280;31212;49.734;8.490;2023-07-08T05:27:58;100360.59;;;20.12;60.73
45467;BME280;31212;49.734;8.490;2023-07-08T05:30:25;100288.22;;;20.43;59.28
45467;BME280;31212;49.734;8.490;2023-07-08T05:32:53;100245.53;;;20.55;57.47
45467;BME280;31212;49.734;8.490;2023-07-08T05:35:19;100211.88;;;20.82;56.53
45467;BME280;31212;49.734;8.490;2023-07-08T05:37:47;100185.78;;;20.97;55.63
45467;BME280;31212;49.734;8.490;2023-07-08T05:40:15;100180.59;;;21.14;55.10
45467;BME280;31212;49.734;8.490;2023-07-08T05:42:42;100193.72;;;21.37;55.03
45467;BME280;31212;49.734;8.490;2023-07-08T05:45:08;100195.97;;;21.25;54.96
45467;BME280;31212;49.734;8.490;2023-07-08T05:47:37;100196.78;;;21.07;55.02
45467;BME280;31212;49.734;8.490;2023-07-08T05:50:04;100243.22;;;20.90;56.30
45467;BME280;31212;49.734;8.490;2023-07-08T05:52:31;100345.66;;;20.58;59.07
45467;BME280;31212;49.734;8.490;2023-07-08T05:54:59;100572.28;;;19.59;67.29
45467;BME280;31212;49.734;8.490;2023-07-08T05:57:25;100664.00;;;18.47;73.21
45467;BME280;31212;49.734;8.490;2023-07-08T05:59:52;100630.88;;;18.05;73.18
45467;BME280;31212;49.734;8.490;2023-07-08T06:02:18;100672.63;;;17.77;76.55
45467;BME280;31212;49.734;8.490;2023-07-08T06:04:48;100669.88;;;17.44;79.21
45467;BME280;31212;49.734;8.490;2023-07-08T06:07:15;100684.94;;;17.32;83.11
45467;BME280;31212;49.734;8.490;2023-07-08T06:09:42;100672.97;;;17.19;84.82
45467;BME280;31212;49.734;8.490;2023-07-08T06:12:10;100648.81;;;17.03;86.21
45467;BME280;31212;49.734;8.490;2023-07-08T06:14:36;100600.41;;;16.74;86.17
45467;BME280;31212;49.734;8.490;2023-07-08T06:17:04;100614.84;;;16.97;84.25
45467;BME280;31212;49.734;8.490;2023-07-08T06:19:31;100536.91;;;17.43;78.65
45467;BME280;31212;49.734;8.490;2023-07-08T06:21:58;100429.59;;;17.65;72.91
45467;BME280;31212;49.734;8.490;2023-07-08T06:24:25;100496.03;;;17.69;74.43
45467;BME280;31212;49.734;8.490;2023-07-08T06:26:51;100580.19;;;17.62;78.19
45467;BME280;31212;49.734;8.490;2023-07-08T06:29:19;100606.13;;;17.76;79.96
45467;BME280;31212;49.734;8.490;2023-07-08T06:31:46;100652.78;;;18.04;82.52
45467;BME280;31212;49.734;8.490;2023-07-08T06:34:12;100682.09;;;18.23;85.06
45467;BME280;31212;49.734;8.490;2023-07-08T06:36:39;100705.31;;;18.42;85.36
45467;BME280;31212;49.734;8.490;2023-07-08T06:39:05;100692.13;;;18.43;85.06
45467;BME280;31212;49.734;8.490;2023-07-08T06:41:34;100672.72;;;18.49;83.60
45467;BME280;31212;49.734;8.490;2023-07-08T06:44:00;100703.19;;;18.56;83.57
45467;BME280;31212;49.734;8.490;2023-07-08T06:46:31;100711.44;;;18.77;84.30
45467;BME280;31212;49.734;8.490;2023-07-08T06:48:58;100691.16;;;19.15;84.01
45467;BME280;31212;49.734;8.490;2023-07-08T06:51:25;100673.81;;;19.67;82.63
45467;BME280;31212;49.734;8.490;2023-07-08T06:53:52;100649.72;;;20.10;80.27
45467;BME280;31212;49.734;8.490;2023-07-08T06:56:19;100594.75;;;20.24;77.25
45467;BME280;31212;49.734;8.490;2023-07-08T06:58:45;100569.31;;;20.23;75.82
45467;BME280;31212;49.734;8.490;2023-07-08T07:01:12;100562.13;;;20.27;74.93
45467;BME280;31212;49.734;8.490;2023-07-08T07:03:40;100561.97;;;20.06;75.44
45467;BME280;31212;49.734;8.490;2023-07-08T07:06:07;100607.19;;;19.94;78.00
45467;BME280;31212;49.734;8.490;2023-07-08T07:08:34;100619.78;;;20.11;78.39
45467;BME280;31212;49.734;8.490;2023-07-08T07:11:00;100603.25;;;20.32;77.23
45467;BME280;31212;49.734;8.490;2023-07-08T07:13:27;100599.28;;;20.21;76.60
45467;BME280;31212;49.734;8.490;2023-07-08T07:15:53;100584.00;;;20.04;75.75
45467;BME280;31212;49.734;8.490;2023-07-08T07:18:20;100577.53;;;19.87;75.72
45467;BME280;31212;49.734;8.490;2023-07-08T07:20:49;100631.41;;;20.05;77.40
45467;BME280;31212;49.734;8.490;2023-07-08T07:23:17;100636.84;;;20.00;77.57
45467;BME280;31212;49.734;8.490;2023-07-08T07:25:45;100624.88;;;21.18;76.83
45467;BME280;31212;49.734;8.490;2023-07-08T07:28:13;100449.66;;;23.01;68.06
45467;BME280;31212;49.734;8.490;2023-07-08T07:30:42;100295.50;;;24.46;61.80
45467;BME280;31212;49.734;8.490;2023-07-08T07:33:08;100248.53;;;25.09;58.91
45467;BME280;31212;49.734;8.490;2023-07-08T07:35:35;100195.13;;;26.13;56.13
45467;BME280;31212;49.734;8.490;2023-07-08T07:38:03;100086.59;;;27.22;52.51
45467;BME280;31212;49.734;8.490;2023-07-08T07:40:29;100151.50;;;27.70;52.76
45467;BME280;31212;49.734;8.490;2023-07-08T07:42:56;100071.06;;;28.01;50.30
45467;BME280;31212;49.734;8.490;2023-07-08T07:45:23;100095.63;;;27.93;49.96
45467;BME280;31212;49.734;8.490;2023-07-08T07:47:49;100143.81;;;28.03;50.54
45467;BME280;31212;49.734;8.490;2023-07-08T07:50:16;100097.94;;;29.14;48.90
45467;BME280;31212;49.734;8.490;2023-07-08T07:52:43;100000.81;;;30.53;45.63
45467;BME280;31212;49.734;8.490;2023-07-08T07:55:11;99886.25;;;31.65;42.30
45467;BME280;31212;49.734;8.490;2023-07-08T07:57:37;99880.34;;;32.46;41.18
45467;BME280;31212;49.734;8.490;2023-07-08T08:00:05;99772.31;;;33.76;37.49
45467;BME280;31212;49.734;8.490;2023-07-08T08:02:38;99672.44;;;33.95;34.63
45467;BME280;31212;49.734;8.490;2023-07-08T08:05:05;99702.06;;;33.52;35.18
45467;BME280;31212;49.734;8.490;2023-07-08T08:07:31;99702.19;;;34.45;34.25
45467;BME280;31212;49.734;8.490;2023-07-08T08:09:58;99607.84;;;34.45;32.44
45467;BME280;31212;49.734;8.490;2023-07-08T08:12:26;99641.75;;;35.12;32.03
45467;BME280;31212;49.734;8.490;2023-07-08T08:14:52;99521.97;;;34.33;30.20
45467;BME280;31212;49.734;8.490;2023-07-08T08:17:19;99624.84;;;34.12;31.71
45467;BME280;31212;49.734;8.490;2023-07-08T08:19:46;99527.72;;;33.21;30.84
45467;BME280;31212;49.734;8.490;2023-07-08T08:22:12;99607.19;;;31.65;33.18
45467;BME280;31212;49.734;8.490;2023-07-08T08:24:39;99668.78;;;31.57;33.69
45467;BME280;31212;49.734;8.490;2023-07-08T08:27:05;99619.81;;;30.79;33.22
45467;BME280;31212;49.734;8.490;2023-07-08T08:29:33;99728.25;;;31.90;34.31
45467;BME280;31212;49.734;8.490;2023-07-08T08:32:00;99670.03;;;33.07;31.73
45467;BME280;31212;49.734;8.490;2023-07-08T08:34:27;99621.50;;;34.51;30.20
45467;BME280;31212;49.734;8.490;2023-07-08T08:36:53;99576.97;;;34.72;29.22
45467;BME280;31212;49.734;8.490;2023-07-08T08:39:20;99566.53;;;35.80;28.84
45467;BME280;31212;49.734;8.490;2023-07-08T08:41:49;99479.50;;;36.46;26.84
45467;BME280;31212;49.734;8.490;2023-07-08T08:44:24;99431.44;;;36.78;25.67
45467;BME280;31212;49.734;8.490;2023-07-08T08:46:54;99436.28;;;35.31;26.61
45467;BME280;31212;49.734;8.490;2023-07-08T08:49:27;99455.25;;;36.67;25.68
45467;BME280;31212;49.734;8.490;2023-07-08T08:51:57;99525.47;;;34.98;28.31
45467;BME280;31212;49.734;8.490;2023-07-08T08:54:24;99564.09;;;35.62;28.01
45467;BME280;31212;49.734;8.490;2023-07-08T08:56:59;99466.13;;;36.29;26.61
45467;BME280;31212;49.734;8.490;2023-07-08T08:59:42;99475.94;;;36.90;26.16
45467;BME280;31212;49.734;8.490;2023-07-08T09:02:32;99465.25;;;36.37;26.66
45467;BME280;31212;49.734;8.490;2023-07-08T09:05:04;99455.97;;;36.91;25.84
45467;BME280;31212;49.734;8.490;2023-07-08T09:07:36;99553.69;;;37.18;27.16
45467;BME280;31212;49.734;8.490;2023-07-08T09:10:10;99518.25;;;34.99;28.27
45467;BME280;31212;49.734;8.490;2023-07-08T09:12:40;99591.91;;;36.55;27.96
45467;BME280;31212;49.734;8.490;2023-07-08T09:15:12;99634.50;;;35.60;29.04
45467;BME280;31212;49.734;8.490;2023-07-08T09:17:41;99550.38;;;34.52;29.04
45467;BME280;31212;49.734;8.490;2023-07-08T09:20:17;99523.78;;;37.63;25.90
45467;BME280;31212;49.734;8.490;2023-07-08T09:22:51;99534.25;;;37.66;26.19
45467;BME280;31212;49.734;8.490;2023-07-08T09:25:25;99522.00;;;38.20;25.70
45467;BME280;31212;49.734;8.490;2023-07-08T09:27:54;99459.00;;;38.88;24.51
45467;BME280;31212;49.734;8.490;2023-07-08T09:30:22;99497.03;;;38.60;25.02
45467;BME280;31212;49.734;8.490;2023-07-08T09:32:51;99484.13;;;37.98;25.47
45467;BME280;31212;49.734;8.490;2023-07-08T09:35:21;99497.34;;;39.27;24.73
45467;BME280;31212;49.734;8.490;2023-07-08T09:37:48;99471.09;;;39.81;23.58
45467;BME280;31212;49.734;8.490;2023-07-08T09:40:17;99474.63;;;39.75;24.05
45467;BME280;31212;49.734;8.490;2023-07-08T09:42:48;99543.13;;;37.23;26.92
45467;BME280;31212;49.734;8.490;2023-07-08T09:45:19;99457.63;;;37.72;24.77
45467;BME280;31212;49.734;8.490;2023-07-08T09:47:47;99419.75;;;36.41;25.51
45467;BME280;31212;49.734;8.490;2023-07-08T09:50:21;99451.25;;;36.63;25.88
45467;BME280;31212;49.734;8.490;2023-07-08T09:52:51;99538.09;;;37.35;26.35
45467;BME280;31212;49.734;8.490;2023-07-08T09:55:18;99497.66;;;36.97;26.42
45467;BME280;31212;49.734;8.490;2023-07-08T09:57:47;99471.16;;;36.02;26.82
45467;BME280;31212;49.734;8.490;2023-07-08T10:00:15;99534.41;;;36.91;26.45
45467;BME280;31212;49.734;8.490;2023-07-08T10:02:49;99459.66;;;37.42;24.87
45467;BME280;31212;49.734;8.490;2023-07-08T10:05:26;99421.59;;;38.28;23.92
45467;BME280;31212;49.734;8.490;2023-07-08T10:07:56;99502.50;;;35.89;26.83
45467;BME280;31212;49.734;8.490;2023-07-08T10:10:27;99525.91;;;37.09;26.41
45467;BME280;31212;49.734;8.490;2023-07-08T10:12:55;99506.69;;;38.69;25.09
45467;BME280;31212;49.734;8.490;2023-07-08T10:15:28;99487.81;;;38.89;24.53
45467;BME280;31212;49.734;8.490;2023-07-08T10:17:57;99365.06;;;37.62;24.02
45467;BME280;31212;49.734;8.490;2023-07-08T10:20:38;99436.78;;;39.46;23.03
45467;BME280;31212;49.734;8.490;2023-07-08T10:23:19;99463.72;;;39.21;22.84
45467;BME280;31212;49.734;8.490;2023-07-08T10:25:55;99468.34;;;40.21;23.30
45467;BME280;31212;49.734;8.490;2023-07-08T10:28:31;99380.91;;;40.69;21.76
45467;BME280;31212;49.734;8.490;2023-07-08T10:31:19;99522.31;;;40.11;23.54
45467;BME280;31212;49.734;8.490;2023-07-08T10:34:09;99441.41;;;39.59;23.16
45467;BME280;31212;49.734;8.490;2023-07-08T10:36:48;99415.69;;;40.67;22.39
45467;BME280;31212;49.734;8.490;2023-07-08T10:39:42;99393.06;;;40.74;21.74
45467;BME280;31212;49.734;8.490;2023-07-08T10:42:21;99403.84;;;41.26;21.37
45467;BME280;31212;49.734;8.490;2023-07-08T10:44:54;99460.13;;;41.39;22.18
45467;BME280;31212;49.734;8.490;2023-07-08T10:47:36;99462.59;;;37.90;24.66
45467;BME280;31212;49.734;8.490;2023-07-08T10:50:20;99514.56;;;38.00;25.24
45467;BME280;31212;49.734;8.490;2023-07-08T10:52:59;99569.31;;;39.64;24.74
45467;BME280;31212;49.734;8.490;2023-07-08T10:55:37;99549.41;;;40.78;23.60
45467;BME280;31212;49.734;8.490;2023-07-08T10:58:36;99512.69;;;41.71;22.77
45467;BME280;31212;49.734;8.490;2023-07-08T11:01:12;99378.81;;;41.35;21.03
45467;BME280;31212;49.734;8.490;2023-07-08T11:03:59;99423.66;;;40.62;21.71
45467;BME280;31212;49.734;8.490;2023-07-08T11:06:40;99397.38;;;41.20;21.08
45467;BME280;31212;49.734;8.490;2023-07-08T11:09:12;99473.03;;;42.00;21.76
45467;BME280;31212;49.734;8.490;2023-07-08T11:11:42;99425.31;;;41.41;21.62
45467;BME280;31212;49.734;8.490;2023-07-08T11:14:15;99446.63;;;41.76;21.68
45467;BME280;31212;49.734;8.490;2023-07-08T11:16:47;99474.53;;;41.46;22.19
45467;BME280;31212;49.734;8.490;2023-07-08T11:19:21;99424.44;;;41.47;21.54
45467;BME280;31212;49.734;8.490;2023-07-08T11:21:52;99471.13;;;41.18;22.51
45467;BME280;31212;49.734;8.490;2023-07-08T11:24:25;99478.19;;;40.94;22.59
45467;BME280;31212;49.734;8.490;2023-07-08T11:26:57;99481.38;;;40.78;22.75
45467;BME280;31212;49.734;8.490;2023-07-08T11:29:32;99452.63;;;38.67;23.81
45467;BME280;31212;49.734;8.490;2023-07-08T11:32:03;99600.53;;;40.22;24.98
45467;BME280;31212;49.734;8.490;2023-07-08T11:34:31;99515.31;;;40.68;22.83
45467;BME280;31212;49.734;8.490;2023-07-08T11:36:59;99530.00;;;40.41;23.85
45467;BME280;31212;49.734;8.490;2023-07-08T11:39:31;99521.06;;;40.20;23.61
45467;BME280;31212;49.734;8.490;2023-07-08T11:42:21;99573.09;;;39.90;24.39
45467;BME280;31212;49.734;8.490;2023-07-08T11:44:51;99483.16;;;39.51;23.62
45467;BME280;31212;49.734;8.490;2023-07-08T11:47:24;99510.13;;;38.49;25.01
45467;BME280;31212;49.734;8.490;2023-07-08T11:49:52;99555.84;;;38.52;25.32
45467;BME280;31212;49.734;8.490;2023-07-08T11:52:21;99583.63;;;38.33;25.71
45467;BME280;31212;49.734;8.490;2023-07-08T11:54:56;99569.03;;;38.62;25.40
45467;BME280;31212;49.734;8.490;2023-07-08T11:57:28;99581.59;;;38.35;25.52
45467;BME280;31212;49.734;8.490;2023-07-08T12:00:16;99547.06;;;38.00;25.61
45467;BME280;31212;49.734;8.490;2023-07-08T12:02:51;99623.81;;;37.79;27.05
45467;BME280;31212;49.734;8.490;2023-07-08T12:05:29;99571.00;;;37.97;25.69
45467;BME280;31212;49.734;8.490;2023-07-08T12:07:57;99566.25;;;37.99;26.19
45467;BME280;31212;49.734;8.490;2023-07-08T12:10:30;99628.25;;;38.30;26.64
45467;BME280;31212;49.734;8.490;2023-07-08T12:12:58;99577.78;;;38.08;26.19
45467;BME280;31212;49.734;8.490;2023-07-08T12:15:26;99660.38;;;37.90;27.65
45467;BME280;31212;49.734;8.490;2023-07-08T12:17:56;99661.00;;;37.56;27.97
45467;BME280;31212;49.734;8.490;2023-07-08T12:20:27;99665.19;;;37.58;27.88
45467;BME280;31212;49.734;8.490;2023-07-08T12:22:54;99581.03;;;37.38;26.83
45467;BME280;31212;49.734;8.490;2023-07-08T12:25:22;99609.47;;;37.49;27.14
45467;BME280;31212;49.734;8.490;2023-07-08T12:27:51;99575.81;;;37.36;26.89
45467;BME280;31212;49.734;8.490;2023-07-08T12:30:17;99660.88;;;37.64;28.20
45467;BME280;31212;49.734;8.490;2023-07-08T12:32:45;99638.78;;;37.45;27.58
45467;BME280;31212;49.734;8.490;2023-07-08T12:35:20;99626.22;;;37.23;27.53
45467;BME280;31212;49.734;8.490;2023-07-08T12:37:48;99636.47;;;37.27;27.41
45467;BME280;31212;49.734;8.490;2023-07-08T12:40:14;99600.44;;;37.27;26.81
45467;BME280;31212;49.734;8.490;2023-07-08T12:42:41;99606.66;;;37.57;26.83
45467;BME280;31212;49.734;8.490;2023-07-08T12:45:14;99654.00;;;37.46;27.50
45467;BME280;31212;49.734;8.490;2023-07-08T12:47:42;99649.91;;;37.20;27.73
45467;BME280;31212;49.734;8.490;2023-07-08T12:50:09;99617.91;;;37.24;27.30
45467;BME280;31212;49.734;8.490;2023-07-08T12:52:36;99627.53;;;37.42;27.50
45467;BME280;31212;49.734;8.490;2023-07-08T12:55:03;99619.75;;;37.24;27.60
45467;BME280;31212;49.734;8.490;2023-07-08T12:57:30;99609.69;;;37.32;26.91
45467;BME280;31212;49.734;8.490;2023-07-08T12:59:57;99615.03;;;37.62;26.67
45467;BME280;31212;49.734;8.490;2023-07-08T13:02:27;99659.91;;;37.50;27.60
45467;BME280;31212;49.734;8.490;2023-07-08T13:04:57;99657.66;;;37.39;28.07
45467;BME280;31212;49.734;8.490;2023-07-08T13:07:34;99674.47;;;37.49;28.07